sensor_id;sensor_type;location;lat;lon;timestamp;P1;durP1;ratioP1;P2;durP2;ratioP2
41883;SDS011;27566;50.930;5.328;2023-07-08T00:00:49;25.15;;;18.75;;
41883;SDS011;27566;50.930;5.328;2023-07-08T00:03:16;11.98;;;7.38;;
41883;SDS011;27566;50.930;5.328;2023-07-08T00:05:42;15.48;;;8.52;;
41883;SDS011;27566;50.930;5.328;2023-07-08T00:08:16;25.48;;;15.43;;
41883;SDS011;27566;50.930;5.328;2023-07-08T00:10:44;20.70;;;12.73;;
41883;SDS011;27566;50.930;5.328;2023-07-08T00:13:10;17.63;;;10.63;;
41883;SDS011;27566;50.930;5.328;2023-07-08T00:15:36;23.58;;;17.23;;
41883;SDS011;27566;50.930;5.328;2023-07-08T00:18:11;35.15;;;22.40;;
41883;SDS011;27566;50.930;5.328;2023-07-08T00:20:40;20.80;;;14.05;;
41883;SDS011;27566;50.930;5.328;2023-07-08T00:23:10;15.98;;;11.77;;
41883;SDS011;27566;50.930;5.328;2023-07-08T00:25:37;22.52;;;16.35;;
41883;SDS011;27566;50.930;5.328;2023-07-08T00:28:37;26.92;;;19.10;;
41883;SDS011;27566;50.930;5.328;2023-07-08T00:30:58;20.73;;;12.85;;
41883;SDS011;27566;50.930;5.328;2023-07-08T00:33:24;16.98;;;11.00;;
41883;SDS011;27566;50.930;5.328;2023-07-08T00:35:50;13.82;;;7.82;;
41883;SDS011;27566;50.930;5.328;2023-07-08T00:38:23;15.02;;;7.95;;
41883;SDS011;27566;50.930;5.328;2023-07-08T00:41:04;13.63;;;8.48;;
41883;SDS011;27566;50.930;5.328;2023-07-08T00:43:37;12.27;;;8.35;;
41883;SDS011;27566;50.930;5.328;2023-07-08T00:46:13;12.68;;;7.18;;
41883;SDS011;27566;50.930;5.328;2023-07-08T00:51:32;13.10;;;7.20;;
41883;SDS011;27566;50.930;5.328;2023-07-08T00:54:03;14.80;;;8.45;;
41883;SDS011;27566;50.930;5.328;2023-07-08T00:56:33;10.15;;;8.07;;
41883;SDS011;27566;50.930;5.328;2023-07-08T00:59:09;12.82;;;8.07;;
41883;SDS011;27566;50.930;5.328;2023-07-08T01:01:40;15.70;;;9.25;;
41883;SDS011;27566;50.930;5.328;2023-07-08T01:04:12;22.25;;;13.57;;
41883;SDS011;27566;50.930;5.328;2023-07-08T01:06:45;26.05;;;15.85;;
41883;SDS011;27566;50.930;5.328;2023-07-08T01:09:22;28.60;;;19.35;;
41883;SDS011;27566;50.930;5.328;2023-07-08T01:11:57;28.23;;;15.82;;
41883;SDS011;27566;50.930;5.328;2023-07-08T01:14:26;12.82;;;8.23;;
41883;SDS011;27566;50.930;5.328;2023-07-08T01:16:57;20.17;;;12.20;;
41883;SDS011;27566;50.930;5.328;2023-07-08T01:19:23;16.40;;;7.35;;
41883;SDS011;27566;50.930;5.328;2023-07-08T01:22:07;13.38;;;7.68;;
41883;SDS011;27566;50.930;5.328;2023-07-08T01:24:34;12.70;;;8.85;;
41883;SDS011;27566;50.930;5.328;2023-07-08T01:27:04;14.27;;;9.65;;
41883;SDS011;27566;50.930;5.328;2023-07-08T01:29:32;15.32;;;8.35;;
41883;SDS011;27566;50.930;5.328;2023-07-08T01:31:58;10.95;;;7.22;;
41883;SDS011;27566;50.930;5.328;2023-07-08T01:34:28;15.05;;;8.43;;
41883;SDS011;27566;50.930;5.328;2023-07-08T01:36:55;12.10;;;7.45;;
41883;SDS011;27566;50.930;5.328;2023-07-08T01:39:23;15.73;;;9.88;;
41883;SDS011;27566;50.930;5.328;2023-07-08T01:41:49;14.48;;;8.13;;
41883;SDS011;27566;50.930;5.328;2023-07-08T01:44:27;12.65;;;7.20;;
41883;SDS011;27566;50.930;5.328;2023-07-08T01:47:07;9.77;;;7.15;;
41883;SDS011;27566;50.930;5.328;2023-07-08T01:49:40;13.70;;;6.18;;
41883;SDS011;27566;50.930;5.328;2023-07-08T01:52:08;20.95;;;7.03;;
41883;SDS011;27566;50.930;5.328;2023-07-08T01:54:35;12.65;;;6.60;;
41883;SDS011;27566;50.930;5.328;2023-07-08T01:57:01;10.70;;;6.45;;
41883;SDS011;27566;50.930;5.328;2023-07-08T01:59:27;11.95;;;6.78;;
41883;SDS011;27566;50.930;5.328;2023-07-08T02:01:53;12.20;;;6.57;;
41883;SDS011;27566;50.930;5.328;2023-07-08T02:04:20;12.95;;;7.15;;
41883;SDS011;27566;50.930;5.328;2023-07-08T02:06:51;11.80;;;7.10;;
41883;SDS011;27566;50.930;5.328;2023-07-08T02:09:21;12.57;;;6.85;;
41883;SDS011;27566;50.930;5.328;2023-07-08T02:11:47;9.05;;;6.10;;
41883;SDS011;27566;50.930;5.328;2023-07-08T02:14:13;12.80;;;6.70;;
41883;SDS011;27566;50.930;5.328;2023-07-08T02:16:39;13.65;;;6.65;;
41883;SDS011;27566;50.930;5.328;2023-07-08T02:19:05;8.88;;;6.22;;
41883;SDS011;27566;50.930;5.328;2023-07-08T02:21:31;11.48;;;6.18;;
41883;SDS011;27566;50.930;5.328;2023-07-08T02:23:57;13.13;;;7.88;;
41883;SDS011;27566;50.930;5.328;2023-07-08T02:26:23;11.35;;;6.90;;
41883;SDS011;27566;50.930;5.328;2023-07-08T02:28:50;11.95;;;6.70;;
41883;SDS011;27566;50.930;5.328;2023-07-08T02:31:16;11.55;;;7.75;;
41883;SDS011;27566;50.930;5.328;2023-07-08T02:33:42;11.00;;;7.00;;
41883;SDS011;27566;50.930;5.328;2023-07-08T02:36:07;11.35;;;7.15;;
41883;SDS011;27566;50.930;5.328;2023-07-08T02:38:33;11.32;;;6.70;;
41883;SDS011;27566;50.930;5.328;2023-07-08T02:40:59;11.13;;;7.28;;
41883;SDS011;27566;50.930;5.328;2023-07-08T02:43:26;13.38;;;7.70;;
41883;SDS011;27566;50.930;5.328;2023-07-08T02:45:52;14.82;;;7.45;;
41883;SDS011;27566;50.930;5.328;2023-07-08T02:48:18;10.02;;;6.35;;
41883;SDS011;27566;50.930;5.328;2023-07-08T02:50:45;13.45;;;6.55;;
41883;SDS011;27566;50.930;5.328;2023-07-08T02:53:11;10.30;;;6.65;;
41883;SDS011;27566;50.930;5.328;2023-07-08T02:55:40;10.52;;;7.03;;
41883;SDS011;27566;50.930;5.328;2023-07-08T02:58:07;13.35;;;7.45;;
41883;SDS011;27566;50.930;5.328;2023-07-08T03:00:36;12.00;;;6.45;;
41883;SDS011;27566;50.930;5.328;2023-07-08T03:03:03;10.23;;;5.97;;
41883;SDS011;27566;50.930;5.328;2023-07-08T03:05:29;9.70;;;6.90;;
41883;SDS011;27566;50.930;5.328;2023-07-08T03:07:56;10.77;;;6.78;;
41883;SDS011;27566;50.930;5.328;2023-07-08T03:10:22;10.55;;;5.93;;
41883;SDS011;27566;50.930;5.328;2023-07-08T03:12:47;11.00;;;6.57;;
41883;SDS011;27566;50.930;5.328;2023-07-08T03:15:13;9.25;;;6.10;;
41883;SDS011;27566;50.930;5.328;2023-07-08T03:17:39;10.60;;;7.53;;
41883;SDS011;27566;50.930;5.328;2023-07-08T03:20:07;11.45;;;6.68;;
41883;SDS011;27566;50.930;5.328;2023-07-08T03:22:35;13.63;;;7.05;;
41883;SDS011;27566;50.930;5.328;2023-07-08T03:25:01;12.50;;;6.30;;
41883;SDS011;27566;50.930;5.328;2023-07-08T03:27:27;9.48;;;7.53;;
41883;SDS011;27566;50.930;5.328;2023-07-08T03:29:53;11.77;;;6.93;;
41883;SDS011;27566;50.930;5.328;2023-07-08T03:32:19;12.27;;;6.35;;
41883;SDS011;27566;50.930;5.328;2023-07-08T03:34:45;10.63;;;6.65;;
41883;SDS011;27566;50.930;5.328;2023-07-08T03:37:11;10.65;;;6.80;;
41883;SDS011;27566;50.930;5.328;2023-07-08T03:39:37;10.07;;;6.10;;
41883;SDS011;27566;50.930;5.328;2023-07-08T03:42:03;9.45;;;6.07;;
41883;SDS011;27566;50.930;5.328;2023-07-08T03:44:29;10.48;;;6.65;;
41883;SDS011;27566;50.930;5.328;2023-07-08T03:46:55;10.55;;;6.10;;
41883;SDS011;27566;50.930;5.328;2023-07-08T03:49:22;10.85;;;6.93;;
41883;SDS011;27566;50.930;5.328;2023-07-08T03:51:49;11.13;;;6.68;;
41883;SDS011;27566;50.930;5.328;2023-07-08T03:54:17;9.80;;;6.80;;
41883;SDS011;27566;50.930;5.328;2023-07-08T03:56:44;9.65;;;6.90;;
41883;SDS011;27566;50.930;5.328;2023-07-08T03:59:10;10.82;;;6.40;;
41883;SDS011;27566;50.930;5.328;2023-07-08T04:01:36;12.93;;;7.47;;
41883;SDS011;27566;50.930;5.328;2023-07-08T04:04:06;11.32;;;6.80;;
41883;SDS011;27566;50.930;5.328;2023-07-08T04:06:34;9.07;;;6.15;;
41883;SDS011;27566;50.930;5.328;2023-07-08T04:09:00;13.23;;;6.50;;
41883;SDS011;27566;50.930;5.328;2023-07-08T04:11:25;12.68;;;7.78;;
41883;SDS011;27566;50.930;5.328;2023-07-08T04:13:52;9.63;;;6.65;;
41883;SDS011;27566;50.930;5.328;2023-07-08T04:18:50;9.90;;;6.65;;
41883;SDS011;27566;50.930;5.328;2023-07-08T04:21:18;10.23;;;6.65;;
41883;SDS011;27566;50.930;5.328;2023-07-08T04:23:45;11.27;;;7.13;;
41883;SDS011;27566;50.930;5.328;2023-07-08T04:26:11;15.70;;;7.47;;
41883;SDS011;27566;50.930;5.328;2023-07-08T04:28:37;12.05;;;7.45;;
41883;SDS011;27566;50.930;5.328;2023-07-08T04:31:03;11.68;;;6.80;;
41883;SDS011;27566;50.930;5.328;2023-07-08T04:33:29;15.27;;;6.95;;
41883;SDS011;27566;50.930;5.328;2023-07-08T04:35:56;11.02;;;6.63;;
41883;SDS011;27566;50.930;5.328;2023-07-08T04:38:23;25.60;;;8.25;;
41883;SDS011;27566;50.930;5.328;2023-07-08T04:40:51;12.70;;;7.78;;
41883;SDS011;27566;50.930;5.328;2023-07-08T04:43:18;19.70;;;6.93;;
41883;SDS011;27566;50.930;5.328;2023-07-08T04:45:45;12.70;;;7.82;;
41883;SDS011;27566;50.930;5.328;2023-07-08T04:48:17;11.82;;;6.78;;
41883;SDS011;27566;50.930;5.328;2023-07-08T04:50:44;12.60;;;7.65;;
41883;SDS011;27566;50.930;5.328;2023-07-08T04:53:11;11.43;;;7.25;;
41883;SDS011;27566;50.930;5.328;2023-07-08T04:55:39;10.23;;;6.70;;
41883;SDS011;27566;50.930;5.328;2023-07-08T04:58:08;9.18;;;6.43;;
41883;SDS011;27566;50.930;5.328;2023-07-08T05:00:35;15.90;;;7.30;;
41883;SDS011;27566;50.930;5.328;2023-07-08T05:03:00;16.30;;;8.07;;
41883;SDS011;27566;50.930;5.328;2023-07-08T05:05:27;9.75;;;6.55;;
41883;SDS011;27566;50.930;5.328;2023-07-08T05:07:52;11.15;;;5.90;;
41883;SDS011;27566;50.930;5.328;2023-07-08T05:10:19;9.75;;;6.95;;
41883;SDS011;27566;50.930;5.328;2023-07-08T05:12:45;13.80;;;7.57;;
41883;SDS011;27566;50.930;5.328;2023-07-08T05:15:12;17.42;;;6.68;;
41883;SDS011;27566;50.930;5.328;2023-07-08T05:17:39;10.93;;;6.57;;
41883;SDS011;27566;50.930;5.328;2023-07-08T05:20:06;11.55;;;7.22;;
41883;SDS011;27566;50.930;5.328;2023-07-08T05:22:33;12.30;;;6.95;;
41883;SDS011;27566;50.930;5.328;2023-07-08T05:24:59;11.60;;;6.72;;
41883;SDS011;27566;50.930;5.328;2023-07-08T05:27:26;11.60;;;6.80;;
41883;SDS011;27566;50.930;5.328;2023-07-08T05:29:52;9.90;;;6.88;;
41883;SDS011;27566;50.930;5.328;2023-07-08T05:32:18;10.43;;;7.53;;
41883;SDS011;27566;50.930;5.328;2023-07-08T05:34:44;11.38;;;8.45;;
41883;SDS011;27566;50.930;5.328;2023-07-08T05:37:11;10.57;;;8.05;;
41883;SDS011;27566;50.930;5.328;2023-07-08T05:39:37;10.65;;;7.25;;
41883;SDS011;27566;50.930;5.328;2023-07-08T05:42:03;12.35;;;7.55;;
41883;SDS011;27566;50.930;5.328;2023-07-08T05:44:29;10.95;;;8.07;;
41883;SDS011;27566;50.930;5.328;2023-07-08T05:46:55;13.55;;;7.55;;
41883;SDS011;27566;50.930;5.328;2023-07-08T05:49:21;11.63;;;6.95;;
41883;SDS011;27566;50.930;5.328;2023-07-08T05:51:47;8.93;;;6.95;;
41883;SDS011;27566;50.930;5.328;2023-07-08T05:54:14;9.68;;;7.18;;
41883;SDS011;27566;50.930;5.328;2023-07-08T05:56:40;11.80;;;7.70;;
41883;SDS011;27566;50.930;5.328;2023-07-08T05:59:06;11.95;;;8.77;;
41883;SDS011;27566;50.930;5.328;2023-07-08T06:01:32;13.07;;;7.88;;
41883;SDS011;27566;50.930;5.328;2023-07-08T06:03:58;13.02;;;7.25;;
41883;SDS011;27566;50.930;5.328;2023-07-08T06:06:27;11.98;;;8.52;;
41883;SDS011;27566;50.930;5.328;2023-07-08T06:08:54;11.63;;;8.00;;
41883;SDS011;27566;50.930;5.328;2023-07-08T06:11:20;16.88;;;8.18;;
41883;SDS011;27566;50.930;5.328;2023-07-08T06:13:47;12.65;;;7.85;;
41883;SDS011;27566;50.930;5.328;2023-07-08T06:16:13;10.10;;;7.53;;
41883;SDS011;27566;50.930;5.328;2023-07-08T06:18:39;11.10;;;7.45;;
41883;SDS011;27566;50.930;5.328;2023-07-08T06:21:05;12.63;;;7.45;;
41883;SDS011;27566;50.930;5.328;2023-07-08T06:23:31;11.88;;;9.48;;
41883;SDS011;27566;50.930;5.328;2023-07-08T06:25:57;12.82;;;10.45;;
41883;SDS011;27566;50.930;5.328;2023-07-08T06:28:23;13.65;;;10.45;;
41883;SDS011;27566;50.930;5.328;2023-07-08T06:30:49;13.93;;;11.85;;
41883;SDS011;27566;50.930;5.328;2023-07-08T06:33:15;14.60;;;11.07;;
41883;SDS011;27566;50.930;5.328;2023-07-08T06:35:41;13.88;;;11.45;;
41883;SDS011;27566;50.930;5.328;2023-07-08T06:38:08;16.08;;;10.95;;
41883;SDS011;27566;50.930;5.328;2023-07-08T06:40:34;16.95;;;11.52;;
41883;SDS011;27566;50.930;5.328;2023-07-08T06:43:01;15.57;;;10.98;;
41883;SDS011;27566;50.930;5.328;2023-07-08T06:45:28;11.98;;;10.25;;
41883;SDS011;27566;50.930;5.328;2023-07-08T06:47:54;13.98;;;10.43;;
41883;SDS011;27566;50.930;5.328;2023-07-08T06:50:23;14.07;;;10.18;;
41883;SDS011;27566;50.930;5.328;2023-07-08T06:52:51;13.15;;;10.90;;
41883;SDS011;27566;50.930;5.328;2023-07-08T06:55:17;11.38;;;9.20;;
41883;SDS011;27566;50.930;5.328;2023-07-08T06:57:43;14.40;;;9.52;;
41883;SDS011;27566;50.930;5.328;2023-07-08T07:00:10;12.30;;;9.32;;
41883;SDS011;27566;50.930;5.328;2023-07-08T07:02:37;14.20;;;10.27;;
41883;SDS011;27566;50.930;5.328;2023-07-08T07:05:03;12.80;;;8.55;;
41883;SDS011;27566;50.930;5.328;2023-07-08T07:07:30;19.00;;;9.95;;
41883;SDS011;27566;50.930;5.328;2023-07-08T07:09:56;13.05;;;9.35;;
41883;SDS011;27566;50.930;5.328;2023-07-08T07:12:23;14.18;;;9.20;;
41883;SDS011;27566;50.930;5.328;2023-07-08T07:14:49;12.00;;;9.57;;
41883;SDS011;27566;50.930;5.328;2023-07-08T07:17:18;15.85;;;9.68;;
41883;SDS011;27566;50.930;5.328;2023-07-08T07:19:44;12.15;;;9.30;;
41883;SDS011;27566;50.930;5.328;2023-07-08T07:22:10;11.90;;;7.78;;
41883;SDS011;27566;50.930;5.328;2023-07-08T07:24:35;12.05;;;8.80;;
41883;SDS011;27566;50.930;5.328;2023-07-08T07:27:01;11.10;;;8.10;;
41883;SDS011;27566;50.930;5.328;2023-07-08T07:29:27;11.52;;;7.80;;
41883;SDS011;27566;50.930;5.328;2023-07-08T07:32:03;12.80;;;9.52;;
41883;SDS011;27566;50.930;5.328;2023-07-08T07:34:29;11.05;;;7.97;;
41883;SDS011;27566;50.930;5.328;2023-07-08T07:36:55;16.75;;;9.65;;
41883;SDS011;27566;50.930;5.328;2023-07-08T07:39:21;12.85;;;9.63;;
41883;SDS011;27566;50.930;5.328;2023-07-08T07:41:47;11.70;;;8.15;;
41883;SDS011;27566;50.930;5.328;2023-07-08T07:44:13;13.40;;;8.90;;
41883;SDS011;27566;50.930;5.328;2023-07-08T07:46:38;12.80;;;8.63;;
41883;SDS011;27566;50.930;5.328;2023-07-08T07:49:04;11.82;;;8.30;;
41883;SDS011;27566;50.930;5.328;2023-07-08T07:51:30;13.00;;;8.82;;
41883;SDS011;27566;50.930;5.328;2023-07-08T07:53:56;13.02;;;9.02;;
41883;SDS011;27566;50.930;5.328;2023-07-08T07:56:22;13.43;;;8.52;;
41883;SDS011;27566;50.930;5.328;2023-07-08T07:58:48;13.70;;;8.98;;
41883;SDS011;27566;50.930;5.328;2023-07-08T08:01:14;13.25;;;8.80;;
41883;SDS011;27566;50.930;5.328;2023-07-08T08:03:41;11.27;;;8.40;;
41883;SDS011;27566;50.930;5.328;2023-07-08T08:06:07;12.68;;;8.90;;
41883;SDS011;27566;50.930;5.328;2023-07-08T08:08:33;12.90;;;9.05;;
41883;SDS011;27566;50.930;5.328;2023-07-08T08:10:58;16.35;;;8.88;;
41883;SDS011;27566;50.930;5.328;2023-07-08T08:13:24;15.88;;;10.10;;
41883;SDS011;27566;50.930;5.328;2023-07-08T08:15:55;13.27;;;9.23;;
41883;SDS011;27566;50.930;5.328;2023-07-08T08:18:25;14.52;;;8.90;;
41883;SDS011;27566;50.930;5.328;2023-07-08T08:20:51;13.13;;;8.40;;
41883;SDS011;27566;50.930;5.328;2023-07-08T08:23:17;12.63;;;8.43;;
41883;SDS011;27566;50.930;5.328;2023-07-08T08:25:43;12.02;;;8.23;;
41883;SDS011;27566;50.930;5.328;2023-07-08T08:28:09;13.75;;;9.02;;
41883;SDS011;27566;50.930;5.328;2023-07-08T08:30:35;15.20;;;10.55;;
41883;SDS011;27566;50.930;5.328;2023-07-08T08:33:01;11.38;;;8.10;;
41883;SDS011;27566;50.930;5.328;2023-07-08T08:35:27;11.75;;;8.57;;
41883;SDS011;27566;50.930;5.328;2023-07-08T08:37:53;16.55;;;9.38;;
41883;SDS011;27566;50.930;5.328;2023-07-08T08:40:20;11.90;;;8.60;;
41883;SDS011;27566;50.930;5.328;2023-07-08T08:42:50;16.88;;;9.25;;
41883;SDS011;27566;50.930;5.328;2023-07-08T08:45:22;14.10;;;8.07;;
41883;SDS011;27566;50.930;5.328;2023-07-08T08:47:54;12.25;;;8.82;;
41883;SDS011;27566;50.930;5.328;2023-07-08T08:50:36;12.60;;;9.35;;
41883;SDS011;27566;50.930;5.328;2023-07-08T08:53:10;14.68;;;10.13;;
41883;SDS011;27566;50.930;5.328;2023-07-08T08:55:38;13.98;;;9.07;;
41883;SDS011;27566;50.930;5.328;2023-07-08T09:01:10;15.68;;;9.52;;
41883;SDS011;27566;50.930;5.328;2023-07-08T09:03:43;14.00;;;8.73;;
41883;SDS011;27566;50.930;5.328;2023-07-08T09:06:21;10.73;;;6.72;;
41883;SDS011;27566;50.930;5.328;2023-07-08T09:08:50;12.10;;;7.47;;
41883;SDS011;27566;50.930;5.328;2023-07-08T09:22:42;10.20;;;7.20;;
41883;SDS011;27566;50.930;5.328;2023-07-08T09:25:34;11.32;;;7.25;;
41883;SDS011;27566;50.930;5.328;2023-07-08T09:28:05;13.13;;;7.75;;
41883;SDS011;27566;50.930;5.328;2023-07-08T09:30:32;11.65;;;7.32;;
41883;SDS011;27566;50.930;5.328;2023-07-08T09:33:02;13.10;;;8.27;;
41883;SDS011;27566;50.930;5.328;2023-07-08T09:35:37;12.43;;;7.70;;
41883;SDS011;27566;50.930;5.328;2023-07-08T09:38:18;11.23;;;7.68;;
41883;SDS011;27566;50.930;5.328;2023-07-08T09:40:48;11.05;;;7.85;;
41883;SDS011;27566;50.930;5.328;2023-07-08T09:43:25;13.65;;;7.15;;
41883;SDS011;27566;50.930;5.328;2023-07-08T09:46:02;13.77;;;7.82;;
41883;SDS011;27566;50.930;5.328;2023-07-08T09:48:29;13.35;;;7.82;;
41883;SDS011;27566;50.930;5.328;2023-07-08T09:51:00;12.23;;;7.57;;
41883;SDS011;27566;50.930;5.328;2023-07-08T09:53:26;9.88;;;7.15;;
41883;SDS011;27566;50.930;5.328;2023-07-08T09:55:53;12.38;;;7.30;;
41883;SDS011;27566;50.930;5.328;2023-07-08T10:00:59;10.35;;;7.57;;
41883;SDS011;27566;50.930;5.328;2023-07-08T10:03:32;13.02;;;7.80;;
41883;SDS011;27566;50.930;5.328;2023-07-08T10:06:05;13.32;;;7.05;;
41883;SDS011;27566;50.930;5.328;2023-07-08T10:08:40;12.63;;;7.55;;
41883;SDS011;27566;50.930;5.328;2023-07-08T10:11:13;12.35;;;7.68;;
41883;SDS011;27566;50.930;5.328;2023-07-08T10:13:50;12.32;;;7.70;;
41883;SDS011;27566;50.930;5.328;2023-07-08T10:18:52;10.57;;;7.18;;
41883;SDS011;27566;50.930;5.328;2023-07-08T10:26:42;10.98;;;7.97;;
41883;SDS011;27566;50.930;5.328;2023-07-08T10:43:14;10.38;;;6.80;;
41883;SDS011;27566;50.930;5.328;2023-07-08T10:48:45;12.10;;;7.43;;
41883;SDS011;27566;50.930;5.328;2023-07-08T10:51:37;11.43;;;7.20;;
41883;SDS011;27566;50.930;5.328;2023-07-08T11:05:41;12.07;;;6.70;;
41883;SDS011;27566;50.930;5.328;2023-07-08T11:08:24;14.18;;;7.72;;
41883;SDS011;27566;50.930;5.328;2023-07-08T11:11:01;11.77;;;6.45;;
41883;SDS011;27566;50.930;5.328;2023-07-08T11:13:35;13.88;;;7.10;;
41883;SDS011;27566;50.930;5.328;2023-07-08T11:16:17;8.85;;;6.47;;
41883;SDS011;27566;50.930;5.328;2023-07-08T11:18:55;12.93;;;7.43;;
41883;SDS011;27566;50.930;5.328;2023-07-08T11:21:47;12.70;;;7.55;;
41883;SDS011;27566;50.930;5.328;2023-07-08T11:27:21;11.45;;;6.18;;
41883;SDS011;27566;50.930;5.328;2023-07-08T11:30:17;9.88;;;6.55;;
41883;SDS011;27566;50.930;5.328;2023-07-08T11:32:45;10.93;;;5.90;;
41883;SDS011;27566;50.930;5.328;2023-07-08T11:35:20;10.30;;;7.00;;
41883;SDS011;27566;50.930;5.328;2023-07-08T11:37:58;11.27;;;6.30;;
41883;SDS011;27566;50.930;5.328;2023-07-08T11:40:24;10.13;;;6.65;;
41883;SDS011;27566;50.930;5.328;2023-07-08T11:42:59;10.18;;;7.15;;
41883;SDS011;27566;50.930;5.328;2023-07-08T11:45:32;12.82;;;6.82;;
41883;SDS011;27566;50.930;5.328;2023-07-08T11:50:31;11.45;;;7.00;;
41883;SDS011;27566;50.930;5.328;2023-07-08T11:53:03;12.15;;;8.32;;
41883;SDS011;27566;50.930;5.328;2023-07-08T11:55:55;12.52;;;6.88;;
41883;SDS011;27566;50.930;5.328;2023-07-08T11:58:25;12.75;;;7.93;;
41883;SDS011;27566;50.930;5.328;2023-07-08T12:01:00;8.88;;;5.57;;
41883;SDS011;27566;50.930;5.328;2023-07-08T12:03:32;11.95;;;6.93;;
41883;SDS011;27566;50.930;5.328;2023-07-08T12:05:59;10.50;;;6.57;;
41883;SDS011;27566;50.930;5.328;2023-07-08T12:08:36;12.68;;;7.38;;
41883;SDS011;27566;50.930;5.328;2023-07-08T12:11:07;11.68;;;7.35;;
41883;SDS011;27566;50.930;5.328;2023-07-08T12:13:37;10.73;;;7.45;;
41883;SDS011;27566;50.930;5.328;2023-07-08T12:16:07;11.60;;;6.85;;
41883;SDS011;27566;50.930;5.328;2023-07-08T12:18:38;11.63;;;6.47;;
41883;SDS011;27566;50.930;5.328;2023-07-08T12:21:10;12.30;;;6.40;;
41883;SDS011;27566;50.930;5.328;2023-07-08T12:23:37;10.88;;;6.88;;
41883;SDS011;27566;50.930;5.328;2023-07-08T12:26:09;9.15;;;6.53;;
41883;SDS011;27566;50.930;5.328;2023-07-08T12:28:36;11.23;;;6.60;;
41883;SDS011;27566;50.930;5.328;2023-07-08T12:31:04;11.35;;;7.05;;
41883;SDS011;27566;50.930;5.328;2023-07-08T12:33:40;10.45;;;6.80;;
41883;SDS011;27566;50.930;5.328;2023-07-08T12:36:06;12.00;;;7.38;;
41883;SDS011;27566;50.930;5.328;2023-07-08T12:38:40;10.68;;;6.95;;
41883;SDS011;27566;50.930;5.328;2023-07-08T12:41:11;12.13;;;6.28;;
41883;SDS011;27566;50.930;5.328;2023-07-08T12:43:40;11.30;;;7.78;;
41883;SDS011;27566;50.930;5.328;2023-07-08T12:46:08;11.88;;;6.82;;
41883;SDS011;27566;50.930;5.328;2023-07-08T12:48:39;10.65;;;6.70;;
41883;SDS011;27566;50.930;5.328;2023-07-08T12:51:26;9.60;;;5.78;;
41883;SDS011;27566;50.930;5.328;2023-07-08T12:53:52;11.45;;;6.90;;
41883;SDS011;27566;50.930;5.328;2023-07-08T12:56:19;12.18;;;6.07;;
41883;SDS011;27566;50.930;5.328;2023-07-08T12:58:52;10.68;;;6.63;;
41883;SDS011;27566;50.930;5.328;2023-07-08T13:01:24;10.25;;;5.90;;
41883;SDS011;27566;50.930;5.328;2023-07-08T13:04:02;11.63;;;6.18;;
41883;SDS011;27566;50.930;5.328;2023-07-08T13:06:31;12.45;;;7.03;;
41883;SDS011;27566;50.930;5.328;2023-07-08T13:09:11;12.20;;;6.78;;
41883;SDS011;27566;50.930;5.328;2023-07-08T13:11:47;10.75;;;6.80;;
41883;SDS011;27566;50.930;5.328;2023-07-08T13:14:13;9.40;;;6.20;;
41883;SDS011;27566;50.930;5.328;2023-07-08T13:16:49;10.02;;;6.20;;
41883;SDS011;27566;50.930;5.328;2023-07-08T13:19:15;10.55;;;7.15;;
41883;SDS011;27566;50.930;5.328;2023-07-08T13:21:44;10.93;;;6.85;;
41883;SDS011;27566;50.930;5.328;2023-07-08T13:24:11;14.77;;;6.60;;
41883;SDS011;27566;50.930;5.328;2023-07-08T13:26:37;10.50;;;6.22;;
41883;SDS011;27566;50.930;5.328;2023-07-08T13:29:11;11.13;;;6.40;;
41883;SDS011;27566;50.930;5.328;2023-07-08T13:32:03;9.57;;;5.65;;
41883;SDS011;27566;50.930;5.328;2023-07-08T13:34:32;10.60;;;6.22;;
41883;SDS011;27566;50.930;5.328;2023-07-08T13:36:59;10.15;;;6.40;;
41883;SDS011;27566;50.930;5.328;2023-07-08T13:39:27;10.15;;;6.30;;
41883;SDS011;27566;50.930;5.328;2023-07-08T13:41:56;9.05;;;6.35;;
41883;SDS011;27566;50.930;5.328;2023-07-08T13:46:57;9.18;;;6.35;;
41883;SDS011;27566;50.930;5.328;2023-07-08T13:54:54;11.43;;;7.20;;
41883;SDS011;27566;50.930;5.328;2023-07-08T13:57:33;14.05;;;6.10;;
41883;SDS011;27566;50.930;5.328;2023-07-08T14:00:03;8.65;;;6.30;;
41883;SDS011;27566;50.930;5.328;2023-07-08T14:02:34;9.45;;;6.40;;
41883;SDS011;27566;50.930;5.328;2023-07-08T14:05:02;11.00;;;6.15;;
41883;SDS011;27566;50.930;5.328;2023-07-08T14:07:33;10.63;;;5.90;;
41883;SDS011;27566;50.930;5.328;2023-07-08T14:09:59;12.00;;;6.32;;
41883;SDS011;27566;50.930;5.328;2023-07-08T14:12:25;9.85;;;5.85;;
41883;SDS011;27566;50.930;5.328;2023-07-08T14:14:51;12.40;;;6.70;;
41883;SDS011;27566;50.930;5.328;2023-07-08T14:17:24;11.20;;;6.20;;
41883;SDS011;27566;50.930;5.328;2023-07-08T14:19:54;14.20;;;6.18;;
41883;SDS011;27566;50.930;5.328;2023-07-08T14:22:27;11.60;;;6.45;;
41883;SDS011;27566;50.930;5.328;2023-07-08T14:24:54;9.70;;;6.43;;
41883;SDS011;27566;50.930;5.328;2023-07-08T14:27:21;12.63;;;5.97;;
41883;SDS011;27566;50.930;5.328;2023-07-08T14:29:48;9.38;;;6.28;;
41883;SDS011;27566;50.930;5.328;2023-07-08T14:32:28;10.30;;;6.13;;
41883;SDS011;27566;50.930;5.328;2023-07-08T14:37:51;9.40;;;5.82;;
41883;SDS011;27566;50.930;5.328;2023-07-08T14:40:24;7.78;;;4.40;;
41883;SDS011;27566;50.930;5.328;2023-07-08T14:42:56;8.50;;;4.72;;
41883;SDS011;27566;50.930;5.328;2023-07-08T14:45:25;17.90;;;5.57;;
41883;SDS011;27566;50.930;5.328;2023-07-08T14:47:51;10.13;;;5.18;;
41883;SDS011;27566;50.930;5.328;2023-07-08T14:50:17;7.85;;;4.88;;
41883;SDS011;27566;50.930;5.328;2023-07-08T14:52:44;7.68;;;4.78;;
41883;SDS011;27566;50.930;5.328;2023-07-08T14:55:09;7.95;;;5.15;;
41883;SDS011;27566;50.930;5.328;2023-07-08T14:57:43;12.38;;;5.35;;
41883;SDS011;27566;50.930;5.328;2023-07-08T15:00:13;8.68;;;4.53;;
41883;SDS011;27566;50.930;5.328;2023-07-08T15:02:44;9.63;;;5.43;;
41883;SDS011;27566;50.930;5.328;2023-07-08T15:07:44;10.20;;;5.10;;
41883;SDS011;27566;50.930;5.328;2023-07-08T15:10:24;10.57;;;5.53;;
41883;SDS011;27566;50.930;5.328;2023-07-08T15:12:59;7.90;;;4.43;;
41883;SDS011;27566;50.930;5.328;2023-07-08T15:15:27;10.73;;;5.70;;
41883;SDS011;27566;50.930;5.328;2023-07-08T15:17:58;8.65;;;5.13;;
41883;SDS011;27566;50.930;5.328;2023-07-08T15:20:27;10.07;;;5.07;;
41883;SDS011;27566;50.930;5.328;2023-07-08T15:22:56;8.80;;;5.25;;
41883;SDS011;27566;50.930;5.328;2023-07-08T15:25:23;9.60;;;4.60;;
41883;SDS011;27566;50.930;5.328;2023-07-08T15:27:53;7.43;;;4.68;;
41883;SDS011;27566;50.930;5.328;2023-07-08T15:30:38;7.70;;;5.03;;
41883;SDS011;27566;50.930;5.328;2023-07-08T15:33:04;7.85;;;4.72;;
41883;SDS011;27566;50.930;5.328;2023-07-08T15:35:33;10.75;;;5.50;;
41883;SDS011;27566;50.930;5.328;2023-07-08T15:37:59;6.75;;;4.68;;
41883;SDS011;27566;50.930;5.328;2023-07-08T15:40:30;7.43;;;4.75;;
41883;SDS011;27566;50.930;5.328;2023-07-08T15:42:58;8.95;;;5.30;;
41883;SDS011;27566;50.930;5.328;2023-07-08T15:45:35;9.32;;;5.82;;
41883;SDS011;27566;50.930;5.328;2023-07-08T15:48:02;10.27;;;4.88;;
41883;SDS011;27566;50.930;5.328;2023-07-08T15:50:29;8.30;;;5.32;;
41883;SDS011;27566;50.930;5.328;2023-07-08T15:52:55;9.95;;;5.75;;
41883;SDS011;27566;50.930;5.328;2023-07-08T15:57:58;8.65;;;5.60;;
41883;SDS011;27566;50.930;5.328;2023-07-08T16:00:32;9.02;;;5.38;;
41883;SDS011;27566;50.930;5.328;2023-07-08T16:02:59;9.55;;;5.38;;
41883;SDS011;27566;50.930;5.328;2023-07-08T16:05:29;8.93;;;4.55;;
41883;SDS011;27566;50.930;5.328;2023-07-08T16:07:59;9.20;;;5.30;;